Time;durP1;ratioP1;P1;durP2;ratioP2;P2;SDS_P1;SDS_P2;PMS_P1;PMS_P2;Temp;Humidity;BMP_temperature;BMP_pressure;BME280_temperature;BME280_humidity;BME280_pressure;Samples;Min_cycle;Max_cycle;Signal;HPM_P1;HPM_P2
2022/01/13 00:02:14;;;;;;;32.60;21.13;;;2.10;99.90;;;;;;5034625;28;20210;-72
2022/01/13 00:04:40;;;;;;;29.53;19.73;;;2.10;99.90;;;;;;5047536;28;20186;-72
2022/01/13 00:07:06;;;;;;;27.77;18.87;;;2.10;99.90;;;;;;5039992;28;20186;-73
2022/01/13 00:09:32;;;;;;;30.10;19.70;;;2.00;99.90;;;;;;5034882;28;20194;-72
2022/01/13 00:11:58;;;;;;;29.07;19.40;;;2.00;99.90;;;;;;5039299;28;20265;-73
2022/01/13 00:14:38;;;;;;;29.23;20.27;;;1.90;99.90;;;;;;5039094;28;20200;-73
2022/01/13 00:19:49;;;;;;;30.60;18.63;;;1.90;99.90;;;;;;5040246;28;20189;-72
2022/01/13 00:22:38;;;;;;;27.47;17.87;;;1.80;99.90;;;;;;5026580;28;20206;-74
2022/01/13 00:25:08;;;;;;;26.10;18.47;;;1.80;99.90;;;;;;5019595;28;20604;-72
2022/01/13 00:27:36;;;;;;;25.07;16.70;;;1.80;99.90;;;;;;5026282;28;20601;-73
2022/01/13 00:30:03;;;;;;;28.33;19.17;;;1.80;99.90;;;;;;5046126;28;20645;-73
2022/01/13 00:32:32;;;;;;;28.13;18.60;;;1.80;99.90;;;;;;5051168;28;20196;-73
2022/01/13 00:34:58;;;;;;;26.47;17.17;;;1.80;99.90;;;;;;5033979;28;20187;-72
2022/01/13 00:37:24;;;;;;;29.40;19.07;;;1.80;99.90;;;;;;5036419;28;20609;-74
2022/01/13 00:39:50;;;;;;;26.03;18.17;;;1.90;99.90;;;;;;5042202;28;20185;-73
2022/01/13 00:42:16;;;;;;;26.10;17.73;;;1.90;99.90;;;;;;5048718;28;20690;-73
2022/01/13 00:44:43;;;;;;;28.73;20.30;;;1.90;99.90;;;;;;5041912;28;20185;-72
2022/01/13 00:47:10;;;;;;;28.00;19.50;;;1.80;99.90;;;;;;5039244;28;20311;-73
2022/01/13 00:49:36;;;;;;;31.27;20.30;;;1.80;99.90;;;;;;5037250;28;20658;-72
2022/01/13 00:52:04;;;;;;;26.53;17.97;;;1.70;99.90;;;;;;5039480;28;20267;-73
2022/01/13 00:54:32;;;;;;;32.93;20.33;;;1.60;99.90;;;;;;5005697;28;20232;-73
2022/01/13 00:56:58;;;;;;;29.67;19.70;;;1.70;99.90;;;;;;5035470;28;20211;-72
2022/01/13 00:59:24;;;;;;;27.90;18.50;;;1.70;99.90;;;;;;5040359;28;20672;-73
2022/01/13 01:01:51;;;;;;;28.13;19.60;;;1.70;99.90;;;;;;5013874;28;20186;-73
2022/01/13 01:04:18;;;;;;;29.97;20.00;;;1.60;99.90;;;;;;5034730;28;20192;-73
2022/01/13 01:06:45;;;;;;;32.63;20.30;;;1.60;99.90;;;;;;5032180;28;20185;-73
2022/01/13 01:09:15;;;;;;;26.77;18.87;;;1.70;99.90;;;;;;5042187;28;20545;-73
2022/01/13 01:11:44;;;;;;;29.50;18.23;;;1.70;99.90;;;;;;5044721;28;20185;-72
2022/01/13 01:14:12;;;;;;;31.50;20.00;;;1.70;99.90;;;;;;5033646;28;20210;-73
2022/01/13 01:16:38;;;;;;;29.77;19.97;;;1.70;99.90;;;;;;5043129;28;20252;-73
2022/01/13 01:19:07;;;;;;;30.13;19.80;;;1.60;99.90;;;;;;5039202;28;20661;-73
2022/01/13 01:24:27;;;;;;;33.03;20.13;;;1.50;99.90;;;;;;5040348;28;20601;-75
2022/01/13 01:26:59;;;;;;;28.23;18.80;;;1.50;99.90;;;;;;5037434;28;20190;-72
2022/01/13 01:32:01;;;;;;;27.93;18.07;;;1.40;99.90;;;;;;5050189;28;20184;-72
2022/01/13 01:37:15;;;;;;;28.53;17.97;;;1.40;99.90;;;;;;5046991;28;20584;-72
2022/01/13 01:39:43;;;;;;;29.27;17.70;;;1.40;99.90;;;;;;5056856;28;20181;-72
2022/01/13 01:42:09;;;;;;;28.10;17.23;;;1.40;99.90;;;;;;5038336;28;21453;-73
2022/01/13 01:44:40;;;;;;;27.43;17.83;;;1.40;99.90;;;;;;5042753;28;20551;-76
2022/01/13 01:47:08;;;;;;;27.67;17.60;;;1.40;99.90;;;;;;5007197;28;20257;-72
2022/01/13 01:49:39;;;;;;;33.40;19.07;;;1.50;99.90;;;;;;5035603;28;20190;-72
2022/01/13 01:52:07;;;;;;;31.40;17.93;;;1.50;99.90;;;;;;5038479;28;20858;-72
2022/01/13 01:54:33;;;;;;;24.20;16.40;;;1.50;99.90;;;;;;5038295;28;20197;-72
2022/01/13 01:56:59;;;;;;;29.03;18.77;;;1.50;99.90;;;;;;5035473;28;20205;-73
2022/01/13 01:59:29;;;;;;;29.93;19.67;;;1.50;99.90;;;;;;5038363;28;20189;-75
2022/01/13 02:01:56;;;;;;;25.80;17.07;;;1.40;99.90;;;;;;5043479;28;20185;-75
2022/01/13 02:04:25;;;;;;;29.77;18.90;;;1.40;99.90;;;;;;5032520;28;20183;-75
2022/01/13 02:06:52;;;;;;;29.50;18.63;;;1.40;99.90;;;;;;5036794;28;20186;-74
2022/01/13 02:09:19;;;;;;;29.53;18.20;;;1.40;99.90;;;;;;5043075;28;20185;-71
2022/01/13 02:11:50;;;;;;;27.80;18.10;;;1.40;99.90;;;;;;5045234;28;20566;-75
2022/01/13 02:14:32;;;;;;;27.23;17.93;;;1.30;99.90;;;;;;5039265;28;20244;-74
2022/01/13 02:17:12;;;;;;;27.83;18.07;;;1.30;99.90;;;;;;5035081;28;21039;-74
2022/01/13 02:19:41;;;;;;;26.93;17.53;;;1.30;99.90;;;;;;5028556;28;20239;-75
2022/01/13 02:22:07;;;;;;;26.67;18.07;;;1.30;99.90;;;;;;5039342;28;20615;-75
2022/01/13 02:24:34;;;;;;;29.57;19.30;;;1.30;99.90;;;;;;5035565;28;20179;-76
2022/01/13 02:27:01;;;;;;;29.87;18.53;;;1.40;99.90;;;;;;5034009;28;20607;-73
2022/01/13 02:29:27;;;;;;;31.90;18.73;;;1.40;99.90;;;;;;5038901;28;20186;-76
2022/01/13 02:31:53;;;;;;;28.70;18.87;;;1.40;99.90;;;;;;5037942;28;20178;-74
2022/01/13 02:34:19;;;;;;;35.30;20.10;;;1.30;99.90;;;;;;5031442;28;20743;-75
2022/01/13 02:36:48;;;;;;;33.60;20.10;;;1.30;99.90;;;;;;5046037;28;20201;-76
2022/01/13 02:39:14;;;;;;;30.73;19.17;;;1.30;99.90;;;;;;5043814;28;20190;-75
2022/01/13 02:41:40;;;;;;;30.50;18.43;;;1.30;99.90;;;;;;5044713;28;20178;-75
2022/01/13 02:44:15;;;;;;;27.60;17.57;;;1.40;99.90;;;;;;5038251;28;20195;-75
2022/01/13 02:49:10;;;;;;;29.10;19.23;;;1.40;99.90;;;;;;5044041;28;20661;-76
2022/01/13 02:51:38;;;;;;;28.93;18.93;;;1.30;99.90;;;;;;5038601;28;20194;-76
2022/01/13 02:54:04;;;;;;;27.87;18.80;;;1.30;99.90;;;;;;5039066;28;20210;-73
2022/01/13 02:56:30;;;;;;;31.63;19.77;;;1.30;99.90;;;;;;5037232;28;20734;-73
2022/01/13 02:58:56;;;;;;;24.17;16.53;;;1.20;99.90;;;;;;5039801;28;20261;-71
2022/01/13 03:01:22;;;;;;;25.57;17.27;;;1.20;99.90;;;;;;5038939;28;20685;-73
2022/01/13 03:03:48;;;;;;;29.03;18.33;;;1.10;99.90;;;;;;5039063;28;20548;-73
2022/01/13 03:06:17;;;;;;;28.30;18.73;;;1.10;99.90;;;;;;5041674;28;20220;-72
2022/01/13 03:08:45;;;;;;;26.73;18.07;;;1.00;99.90;;;;;;5041247;28;20186;-73
2022/01/13 03:11:12;;;;;;;27.20;17.23;;;1.10;99.90;;;;;;5037351;28;20182;-73
2022/01/13 03:13:38;;;;;;;26.70;17.33;;;1.00;99.90;;;;;;5038413;28;20206;-71
2022/01/13 03:16:08;;;;;;;27.10;17.50;;;1.10;99.90;;;;;;5043319;28;20704;-73
2022/01/13 03:18:35;;;;;;;27.27;17.53;;;1.10;99.90;;;;;;5057131;28;20503;-76
2022/01/13 03:21:02;;;;;;;27.77;16.97;;;1.20;99.90;;;;;;5044972;28;20185;-74
2022/01/13 03:23:28;;;;;;;29.63;19.83;;;1.20;99.90;;;;;;5048114;28;20621;-73
2022/01/13 03:25:54;;;;;;;30.60;19.63;;;1.20;99.90;;;;;;5040858;28;20581;-74
2022/01/13 03:28:39;;;;;;;28.60;19.00;;;1.10;99.90;;;;;;5038466;28;20228;-74
2022/01/13 03:31:06;;;;;;;28.40;18.30;;;1.10;99.90;;;;;;5042760;28;20182;-75
2022/01/13 03:33:33;;;;;;;29.00;19.10;;;1.10;99.90;;;;;;5044534;28;20206;-73
2022/01/13 03:36:00;;;;;;;27.97;18.13;;;1.10;99.90;;;;;;5051103;28;20255;-76
2022/01/13 03:38:26;;;;;;;28.67;18.80;;;1.10;99.90;;;;;;5039910;28;20188;-76
2022/01/13 03:40:52;;;;;;;30.47;18.57;;;1.10;99.90;;;;;;5045985;28;20535;-75
2022/01/13 03:43:18;;;;;;;30.27;18.67;;;1.10;99.90;;;;;;5043720;28;20213;-76
2022/01/13 03:45:45;;;;;;;27.33;17.47;;;1.10;99.90;;;;;;5043267;28;20211;-74
2022/01/13 03:48:13;;;;;;;29.17;18.63;;;1.00;99.90;;;;;;5046123;28;20194;-75
2022/01/13 03:50:43;;;;;;;30.77;19.03;;;0.90;99.90;;;;;;5049339;28;20552;-74
2022/01/13 03:53:27;;;;;;;26.97;17.37;;;0.90;99.90;;;;;;5048088;28;20200;-76
2022/01/13 03:56:30;;;;;;;28.27;18.27;;;0.90;99.90;;;;;;5038605;28;20390;-76
2022/01/13 03:59:26;;;;;;;27.13;17.90;;;0.80;99.90;;;;;;5046718;28;20170;-76
2022/01/13 04:02:11;;;;;;;28.30;18.37;;;0.80;99.90;;;;;;5041147;28;20196;-74
2022/01/13 04:04:40;;;;;;;26.63;16.33;;;0.80;99.90;;;;;;5043763;28;20600;-76
2022/01/13 04:07:09;;;;;;;24.63;16.43;;;0.90;99.90;;;;;;5043645;28;20273;-76
2022/01/13 04:09:35;;;;;;;29.70;18.73;;;0.90;99.90;;;;;;5045106;28;20186;-76
2022/01/13 04:12:04;;;;;;;27.33;17.10;;;0.90;99.90;;;;;;5043389;28;20201;-76
2022/01/13 04:14:38;;;;;;;24.93;16.57;;;0.90;99.90;;;;;;5044274;28;20224;-75
2022/01/13 04:17:05;;;;;;;27.90;17.27;;;0.90;99.90;;;;;;5047461;28;20300;-73
2022/01/13 04:19:31;;;;;;;27.63;17.50;;;0.90;99.90;;;;;;5047397;28;20668;-75
2022/01/13 04:21:57;;;;;;;27.43;17.93;;;0.90;99.90;;;;;;5043175;28;20181;-73
2022/01/13 04:24:23;;;;;;;27.27;17.27;;;1.00;99.90;;;;;;5039972;28;20245;-73
2022/01/13 04:26:49;;;;;;;28.33;18.03;;;1.00;99.90;;;;;;5044836;28;20841;-73
2022/01/13 04:31:43;;;;;;;30.47;19.33;;;1.00;99.90;;;;;;5046288;28;20323;-74
2022/01/13 04:34:10;;;;;;;31.77;18.37;;;1.00;99.90;;;;;;5045889;28;20289;-75
2022/01/13 04:36:35;;;;;;;24.20;15.90;;;1.00;99.90;;;;;;5041888;28;20268;-74
2022/01/13 04:39:03;;;;;;;28.80;17.87;;;1.00;99.90;;;;;;5049276;28;20174;-75
2022/01/13 04:41:37;;;;;;;28.33;16.83;;;0.90;99.90;;;;;;5045729;28;20536;-75
2022/01/13 04:44:07;;;;;;;29.33;18.77;;;0.90;99.90;;;;;;5036025;28;20198;-75
2022/01/13 04:46:34;;;;;;;31.03;19.60;;;0.90;99.90;;;;;;5039721;28;20182;-75
2022/01/13 04:49:00;;;;;;;28.93;18.87;;;0.90;99.90;;;;;;5040047;28;20235;-75
2022/01/13 04:51:27;;;;;;;29.77;18.83;;;1.00;99.90;;;;;;5044838;28;20178;-75
2022/01/13 04:53:52;;;;;;;30.17;19.07;;;1.00;99.90;;;;;;5031668;28;20203;-75
2022/01/13 04:56:29;;;;;;;29.17;18.97;;;1.00;99.90;;;;;;5039742;28;20571;-75
2022/01/13 04:58:56;;;;;;;28.80;17.27;;;1.00;99.90;;;;;;5043846;28;20596;-75
2022/01/13 05:01:22;;;;;;;29.50;19.23;;;1.00;99.90;;;;;;5035503;28;20217;-75
2022/01/13 05:03:48;;;;;;;28.23;18.67;;;0.90;99.90;;;;;;5046458;28;20239;-72
2022/01/13 05:06:17;;;;;;;34.13;19.83;;;0.90;99.90;;;;;;5042721;28;20261;-72
2022/01/13 05:08:44;;;;;;;31.63;19.37;;;0.90;99.90;;;;;;5042637;28;20182;-75
2022/01/13 05:11:09;;;;;;;30.17;18.40;;;1.00;99.90;;;;;;5049974;28;20255;-73
2022/01/13 05:13:35;;;;;;;30.10;18.57;;;1.00;99.90;;;;;;5035775;28;20298;-75
2022/01/13 05:16:01;;;;;;;29.93;18.80;;;1.00;99.90;;;;;;5046387;28;20275;-75
2022/01/13 05:21:03;;;;;;;30.80;18.17;;;1.00;99.90;;;;;;5038077;28;20189;-74
2022/01/13 05:23:29;;;;;;;29.47;19.43;;;1.10;99.90;;;;;;5039248;28;20280;-74
2022/01/13 05:25:55;;;;;;;34.03;20.13;;;1.10;99.90;;;;;;5034834;28;20194;-76
2022/01/13 05:28:21;;;;;;;33.10;20.37;;;1.20;99.90;;;;;;5044354;28;20195;-74
2022/01/13 05:30:47;;;;;;;32.23;20.07;;;1.10;99.90;;;;;;5045476;28;20196;-73
2022/01/13 05:33:13;;;;;;;30.50;20.10;;;1.10;99.90;;;;;;5036016;28;20219;-73
2022/01/13 05:35:40;;;;;;;33.27;20.83;;;1.10;99.90;;;;;;5040019;28;20183;-74
2022/01/13 05:38:07;;;;;;;30.50;20.13;;;1.10;99.90;;;;;;5043013;28;20289;-74
2022/01/13 05:40:35;;;;;;;33.93;20.03;;;1.10;99.90;;;;;;5044696;28;20683;-73
2022/01/13 05:43:00;;;;;;;30.87;20.83;;;1.10;99.90;;;;;;5039460;28;20316;-73
2022/01/13 05:45:30;;;;;;;33.13;21.17;;;1.10;99.90;;;;;;5036476;28;20663;-71
2022/01/13 05:47:58;;;;;;;33.77;19.80;;;1.10;99.90;;;;;;5038829;28;20559;-71
2022/01/13 05:50:25;;;;;;;30.23;19.90;;;1.20;99.90;;;;;;5034839;28;20269;-72
2022/01/13 05:52:52;;;;;;;32.83;20.40;;;1.30;99.90;;;;;;5033701;28;20198;-72
2022/01/13 05:55:18;;;;;;;30.50;19.27;;;1.30;99.90;;;;;;5031250;28;20182;-72
2022/01/13 05:57:45;;;;;;;30.90;20.40;;;1.30;99.90;;;;;;5021154;28;20213;-72
2022/01/13 06:00:13;;;;;;;31.20;20.00;;;1.30;99.90;;;;;;5034811;28;20201;-74
2022/01/13 06:02:40;;;;;;;38.67;21.67;;;1.30;99.90;;;;;;5034111;28;20238;-72
2022/01/13 06:05:07;;;;;;;35.60;22.43;;;1.30;99.90;;;;;;5036402;28;22016;-73
2022/01/13 06:07:33;;;;;;;34.17;22.33;;;1.30;99.90;;;;;;5035308;28;20181;-72
2022/01/13 06:09:59;;;;;;;35.03;21.47;;;1.30;99.90;;;;;;5036364;28;20177;-73
2022/01/13 06:12:37;;;;;;;31.40;20.30;;;1.40;99.90;;;;;;5038377;28;20205;-72
2022/01/13 06:15:11;;;;;;;33.00;21.10;;;1.40;99.90;;;;;;5040554;28;20189;-72
2022/01/13 06:17:39;;;;;;;32.37;21.03;;;1.50;99.90;;;;;;5031087;28;20708;-73
2022/01/13 06:20:07;;;;;;;34.10;22.20;;;1.50;99.90;;;;;;5039249;28;20174;-72
2022/01/13 06:22:32;;;;;;;33.03;21.33;;;1.60;99.90;;;;;;5036922;28;20195;-72
2022/01/13 06:24:58;;;;;;;32.67;21.03;;;1.60;99.90;;;;;;5029899;28;20175;-72
2022/01/13 06:27:24;;;;;;;32.23;21.27;;;1.60;99.90;;;;;;5046035;28;20262;-72
2022/01/13 06:29:52;;;;;;;31.73;21.23;;;1.70;99.90;;;;;;5036786;28;20184;-71
2022/01/13 06:32:19;;;;;;;32.67;21.30;;;1.80;99.90;;;;;;5035872;28;20327;-72
2022/01/13 06:34:45;;;;;;;33.77;21.10;;;1.90;99.90;;;;;;5045475;28;20326;-72
2022/01/13 06:37:11;;;;;;;33.83;21.83;;;1.90;99.90;;;;;;5034891;28;20210;-75
2022/01/13 06:39:36;;;;;;;43.13;24.97;;;2.00;99.90;;;;;;5041133;28;20185;-74
2022/01/13 06:42:03;;;;;;;40.27;25.43;;;2.00;99.90;;;;;;5037345;28;20619;-73
2022/01/13 06:44:28;;;;;;;43.67;25.13;;;2.00;99.90;;;;;;5039950;28;20620;-74
2022/01/13 06:46:54;;;;;;;40.33;24.70;;;2.00;99.90;;;;;;5031206;28;20182;-73
2022/01/13 06:49:20;;;;;;;36.47;22.13;;;2.00;99.90;;;;;;5049774;28;20233;-73
2022/01/13 06:51:46;;;;;;;35.93;22.57;;;2.10;99.90;;;;;;5052373;28;20624;-73
2022/01/13 06:54:12;;;;;;;37.83;23.20;;;2.10;99.90;;;;;;5032524;28;20611;-74
2022/01/13 06:56:38;;;;;;;37.50;23.37;;;2.20;99.90;;;;;;5033281;28;20221;-73
2022/01/13 06:59:09;;;;;;;34.93;22.43;;;2.20;99.90;;;;;;5050302;28;20232;-74
2022/01/13 07:01:36;;;;;;;36.43;23.53;;;2.20;99.90;;;;;;5051203;28;20202;-71
2022/01/13 07:04:02;;;;;;;36.07;23.47;;;2.10;99.90;;;;;;5050388;28;20224;-70
2022/01/13 07:06:28;;;;;;;40.90;26.43;;;2.00;99.90;;;;;;5033592;28;20181;-73
2022/01/13 07:08:54;;;;;;;41.33;25.93;;;1.90;99.90;;;;;;5029868;28;20175;-73
2022/01/13 07:11:19;;;;;;;35.93;23.63;;;1.90;99.90;;;;;;5029968;28;20179;-73
2022/01/13 07:13:45;;;;;;;35.23;22.47;;;2.00;99.90;;;;;;5040481;28;20645;-73
2022/01/13 07:16:11;;;;;;;39.83;23.67;;;1.80;99.90;;;;;;5032237;28;20218;-73
2022/01/13 07:18:39;;;;;;;37.50;23.43;;;1.80;99.90;;;;;;5030133;28;20179;-73
2022/01/13 07:21:06;;;;;;;33.73;22.07;;;1.90;99.90;;;;;;5044364;28;20181;-73
2022/01/13 07:23:32;;;;;;;35.47;23.00;;;1.90;99.90;;;;;;5047671;28;20216;-73
2022/01/13 07:25:58;;;;;;;34.63;22.57;;;1.90;99.90;;;;;;5015726;28;20186;-74
2022/01/13 07:28:24;;;;;;;38.13;23.67;;;1.90;99.90;;;;;;5040046;28;20263;-73
2022/01/13 07:30:50;;;;;;;37.03;22.97;;;1.90;99.90;;;;;;5056483;28;20244;-74
2022/01/13 07:33:15;;;;;;;37.77;22.50;;;1.90;99.90;;;;;;5060568;28;20284;-73
2022/01/13 07:35:42;;;;;;;31.30;20.97;;;1.90;99.90;;;;;;5041633;28;20208;-74
2022/01/13 07:38:08;;;;;;;28.37;19.80;;;1.90;99.90;;;;;;5049192;28;20622;-73
2022/01/13 07:40:34;;;;;;;33.87;20.90;;;1.90;99.90;;;;;;5046330;28;20268;-73
2022/01/13 07:43:00;;;;;;;36.93;22.67;;;1.90;99.90;;;;;;5047727;28;20653;-73
2022/01/13 07:45:26;;;;;;;33.77;21.10;;;1.90;99.90;;;;;;5046506;28;20189;-73
2022/01/13 07:47:52;;;;;;;37.13;23.40;;;1.90;99.90;;;;;;5037177;28;20612;-79
2022/01/13 07:50:18;;;;;;;33.27;21.50;;;2.00;99.90;;;;;;5035720;28;20209;-73
2022/01/13 07:52:44;;;;;;;33.63;20.57;;;2.00;99.90;;;;;;5033817;28;20257;-73
2022/01/13 07:55:11;;;;;;;32.67;20.43;;;2.00;99.90;;;;;;5035648;28;20174;-73
2022/01/13 07:57:37;;;;;;;31.13;20.73;;;2.00;99.90;;;;;;5036954;28;20209;-73
2022/01/13 08:00:04;;;;;;;31.90;20.73;;;1.90;99.90;;;;;;5046723;28;20291;-73
2022/01/13 08:02:38;;;;;;;30.13;20.33;;;1.90;99.90;;;;;;5033051;28;20721;-73
2022/01/13 08:05:05;;;;;;;35.93;21.53;;;2.00;99.90;;;;;;5031570;28;20390;-73
2022/01/13 08:07:31;;;;;;;32.73;22.30;;;2.10;99.90;;;;;;5032988;28;20269;-73
2022/01/13 08:09:57;;;;;;;34.80;21.57;;;2.20;99.90;;;;;;5031713;28;20254;-73
2022/01/13 08:12:22;;;;;;;33.43;21.40;;;2.20;99.90;;;;;;5032658;28;20205;-73
2022/01/13 08:14:50;;;;;;;34.43;21.37;;;2.20;99.90;;;;;;5047773;28;20694;-74
2022/01/13 08:20:06;;;;;;;31.03;20.23;;;2.30;99.90;;;;;;5060788;28;20223;-74
2022/01/13 08:22:32;;;;;;;30.93;20.53;;;2.40;99.90;;;;;;5052524;28;20557;-73
2022/01/13 08:24:58;;;;;;;30.13;18.27;;;2.40;99.90;;;;;;5049167;28;20166;-73
2022/01/13 08:27:24;;;;;;;35.73;21.23;;;2.50;99.90;;;;;;5051210;28;20648;-73
2022/01/13 08:29:49;;;;;;;30.23;20.00;;;2.50;99.90;;;;;;5052198;28;20174;-73
2022/01/13 08:32:15;;;;;;;57.10;32.37;;;2.60;99.90;;;;;;5042148;28;20313;-74
2022/01/13 08:34:41;;;;;;;51.27;27.93;;;2.70;99.90;;;;;;5032230;28;20186;-73
2022/01/13 08:37:06;;;;;;;43.23;26.00;;;2.80;99.90;;;;;;5033238;28;20307;-74
2022/01/13 08:39:38;;;;;;;41.87;24.60;;;2.80;99.90;;;;;;5037079;28;20190;-71
2022/01/13 08:42:05;;;;;;;41.90;24.73;;;2.80;99.90;;;;;;5036963;28;20645;-71
2022/01/13 08:44:30;;;;;;;38.83;23.33;;;2.80;99.90;;;;;;5045457;28;20182;-71
2022/01/13 08:46:56;;;;;;;37.83;22.87;;;2.80;99.90;;;;;;5034647;28;20549;-71
2022/01/13 08:49:22;;;;;;;37.03;22.90;;;2.90;99.90;;;;;;5046074;28;20182;-71
2022/01/13 08:51:48;;;;;;;36.90;22.90;;;3.00;99.90;;;;;;5052206;28;20184;-71
2022/01/13 08:54:13;;;;;;;36.93;23.00;;;3.10;99.90;;;;;;5051877;28;20188;-72
2022/01/13 08:56:39;;;;;;;36.57;22.03;;;3.20;99.90;;;;;;5050457;28;20723;-71
2022/01/13 08:59:05;;;;;;;39.43;25.30;;;3.20;99.90;;;;;;5051921;28;20177;-71
2022/01/13 09:01:31;;;;;;;39.63;24.63;;;3.30;99.90;;;;;;5050489;28;20186;-71
2022/01/13 09:03:58;;;;;;;41.17;24.57;;;3.30;99.90;;;;;;5040596;28;20680;-71
2022/01/13 09:06:25;;;;;;;41.33;25.60;;;3.30;99.90;;;;;;5023994;28;20182;-72
2022/01/13 09:08:51;;;;;;;38.67;24.57;;;3.30;99.90;;;;;;5044388;28;20186;-71
2022/01/13 09:11:17;;;;;;;41.73;26.00;;;3.30;99.90;;;;;;5031462;28;20195;-71
2022/01/13 09:13:42;;;;;;;45.40;27.67;;;3.30;99.90;;;;;;5045786;28;20665;-71
2022/01/13 09:16:18;;;;;;;44.63;27.00;;;3.30;99.90;;;;;;5051443;28;20202;-72
2022/01/13 09:21:28;;;;;;;36.67;23.17;;;3.20;99.90;;;;;;5051680;28;20185;-72
2022/01/13 09:23:54;;;;;;;35.37;23.40;;;3.10;99.90;;;;;;5032358;28;20281;-71
2022/01/13 09:26:21;;;;;;;38.47;24.30;;;3.20;99.90;;;;;;5013756;28;20182;-74
2022/01/13 09:28:47;;;;;;;36.50;24.17;;;3.40;99.90;;;;;;5030205;28;20217;-74
2022/01/13 09:31:13;;;;;;;37.17;23.33;;;3.40;99.90;;;;;;5033867;28;20182;-72
2022/01/13 09:33:38;;;;;;;38.23;24.00;;;3.40;99.90;;;;;;5031122;28;20621;-71
2022/01/13 09:36:08;;;;;;;37.80;24.37;;;3.50;99.90;;;;;;5039969;28;20302;-72
2022/01/13 09:38:35;;;;;;;33.73;23.27;;;3.60;99.90;;;;;;5040261;28;20188;-72
2022/01/13 09:41:02;;;;;;;33.93;23.03;;;3.60;99.90;;;;;;5039616;28;20188;-71
2022/01/13 09:43:29;;;;;;;31.57;21.67;;;3.70;99.90;;;;;;5049258;28;20194;-72
2022/01/13 09:45:57;;;;;;;32.73;21.30;;;3.70;99.90;;;;;;5031655;28;20182;-70
2022/01/13 09:48:24;;;;;;;33.17;22.20;;;3.80;99.90;;;;;;5032018;28;20196;-71
2022/01/13 09:50:50;;;;;;;29.20;20.80;;;3.90;99.90;;;;;;5040838;28;20640;-70
2022/01/13 09:53:17;;;;;;;35.40;22.23;;;3.90;99.90;;;;;;5050056;28;20211;-71
2022/01/13 09:55:44;;;;;;;36.00;24.47;;;4.00;99.90;;;;;;5037207;28;20178;-73
2022/01/13 09:58:11;;;;;;;32.17;23.37;;;4.00;99.90;;;;;;5040343;28;20184;-70
2022/01/13 10:00:41;;;;;;;31.20;22.00;;;4.00;99.90;;;;;;5034966;28;20273;-71
2022/01/13 10:03:16;;;;;;;32.70;22.23;;;4.00;99.90;;;;;;5031156;28;20608;-71
2022/01/13 10:05:59;;;;;;;32.37;23.67;;;4.00;99.90;;;;;;5030799;28;20188;-71
2022/01/13 10:08:41;;;;;;;30.33;21.73;;;4.00;99.90;;;;;;5035182;28;20190;-71
2022/01/13 10:11:36;;;;;;;32.67;21.50;;;4.00;99.90;;;;;;5032378;28;20171;-71
2022/01/13 10:16:22;;;;;;;33.60;23.73;;;4.00;99.90;;;;;;5037111;28;20206;-70
2022/01/13 10:17:10;;;;;;;33.93;23.33;;;4.10;99.90;;;;;;5029512;28;20230;-71
2022/01/13 10:19:44;;;;;;;30.50;22.47;;;4.10;99.90;;;;;;5030912;28;20268;-72
2022/01/13 10:22:14;;;;;;;33.70;24.50;;;4.20;99.90;;;;;;5030732;28;20194;-71
2022/01/13 10:24:45;;;;;;;35.63;22.57;;;4.30;99.90;;;;;;5031720;28;20183;-71
2022/01/13 10:27:19;;;;;;;37.10;25.60;;;4.30;99.90;;;;;;5030751;28;20198;-71
2022/01/13 10:30:15;;;;;;;34.93;24.20;;;4.30;99.90;;;;;;5043325;28;20696;-71
2022/01/13 10:32:45;;;;;;;40.27;26.07;;;4.30;99.90;;;;;;5030722;28;20682;-72
2022/01/13 10:35:14;;;;;;;39.23;28.10;;;4.20;99.90;;;;;;5034069;28;20240;-71
2022/01/13 10:37:48;;;;;;;41.77;28.47;;;4.30;99.90;;;;;;5034784;28;20202;-72
2022/01/13 10:40:29;;;;;;;37.10;26.10;;;4.30;99.90;;;;;;5032709;28;20524;-73
2022/01/13 10:45:39;;;;;;;38.10;26.30;;;4.40;99.90;;;;;;5029875;28;21626;-72
2022/01/13 10:48:09;;;;;;;36.63;26.40;;;4.50;99.90;;;;;;5034475;28;20568;-73
2022/01/13 10:50:42;;;;;;;32.90;23.77;;;4.50;99.90;;;;;;5038646;28;20195;-74
2022/01/13 10:53:11;;;;;;;36.17;25.60;;;4.60;99.90;;;;;;5032349;28;20289;-74
2022/01/13 10:55:41;;;;;;;35.37;25.70;;;4.60;99.90;;;;;;5030977;28;20654;-74
2022/01/13 10:58:07;;;;;;;40.90;27.90;;;4.60;99.90;;;;;;5035035;28;20210;-74
2022/01/13 11:00:34;;;;;;;34.33;24.77;;;4.60;99.90;;;;;;5037601;28;20201;-74
2022/01/13 11:03:10;;;;;;;36.83;27.23;;;4.50;99.90;;;;;;5044943;28;20591;-75
2022/01/13 11:05:47;;;;;;;35.07;25.70;;;4.60;99.90;;;;;;5046744;28;20246;-76
2022/01/13 11:08:22;;;;;;;36.43;26.60;;;4.60;99.90;;;;;;5044042;28;20181;-74
2022/01/13 11:10:51;;;;;;;41.90;27.40;;;4.60;99.90;;;;;;5032223;28;20179;-75
2022/01/13 11:13:21;;;;;;;42.83;28.07;;;4.60;99.90;;;;;;5043757;28;20210;-75
2022/01/13 11:15:52;;;;;;;36.40;26.33;;;4.60;99.90;;;;;;5034659;28;20550;-74
2022/01/13 11:18:25;;;;;;;34.73;25.20;;;4.50;99.90;;;;;;5037320;28;20650;-75
2022/01/13 11:20:51;;;;;;;35.13;26.00;;;4.60;99.90;;;;;;5037683;28;20747;-73
2022/01/13 11:23:19;;;;;;;35.57;24.43;;;4.60;99.90;;;;;;5039326;28;20202;-75
2022/01/13 11:25:46;;;;;;;34.80;23.70;;;4.60;99.90;;;;;;5034929;28;20826;-76
2022/01/13 11:28:13;;;;;;;32.63;23.20;;;4.50;99.90;;;;;;5038907;28;20179;-73
2022/01/13 11:30:40;;;;;;;35.30;24.03;;;4.60;99.90;;;;;;5033387;28;20178;-73
2022/01/13 11:33:06;;;;;;;31.47;23.37;;;4.60;99.90;;;;;;5037611;28;20202;-73
2022/01/13 11:35:35;;;;;;;33.43;24.17;;;4.70;99.90;;;;;;5042105;28;20174;-73
2022/01/13 11:38:04;;;;;;;32.93;24.27;;;4.80;99.90;;;;;;5038894;28;20723;-74
2022/01/13 11:40:31;;;;;;;33.37;24.40;;;4.80;99.90;;;;;;5052942;28;20350;-74
2022/01/13 11:43:02;;;;;;;36.13;24.53;;;4.70;99.90;;;;;;5048561;28;20209;-74
2022/01/13 11:45:28;;;;;;;34.40;24.23;;;4.80;99.90;;;;;;5048414;28;20170;-74
2022/01/13 11:48:17;;;;;;;33.77;24.17;;;4.90;99.90;;;;;;5033494;28;20213;-74
2022/01/13 11:50:53;;;;;;;38.57;26.13;;;4.90;99.90;;;;;;5036840;28;20199;-77
2022/01/13 11:53:23;;;;;;;44.27;30.37;;;4.90;99.90;;;;;;5049469;28;20663;-74
2022/01/13 11:56:08;;;;;;;40.97;29.47;;;4.90;99.90;;;;;;5043417;28;20938;-73
2022/01/13 11:58:42;;;;;;;39.17;27.87;;;4.90;99.90;;;;;;5048970;28;20185;-74
2022/01/13 12:01:23;;;;;;;38.13;27.73;;;5.00;99.90;;;;;;5042448;28;20192;-74
2022/01/13 12:04:02;;;;;;;38.70;27.53;;;5.00;99.90;;;;;;5040893;28;20221;-74
2022/01/13 12:06:49;;;;;;;37.43;26.67;;;5.20;99.90;;;;;;5043150;28;20182;-76
2022/01/13 12:09:20;;;;;;;41.57;30.07;;;5.30;99.90;;;;;;5039544;28;20198;-73
2022/01/13 12:11:56;;;;;;;44.43;30.53;;;5.40;99.90;;;;;;5034457;28;20596;-75
2022/01/13 12:14:25;;;;;;;41.80;30.43;;;5.60;99.90;;;;;;5040380;28;20692;-73
2022/01/13 12:17:19;;;;;;;43.43;30.70;;;5.80;99.90;;;;;;5037209;28;20643;-73
2022/01/13 12:19:47;;;;;;;37.53;28.00;;;5.80;99.90;;;;;;5036741;28;20185;-73
2022/01/13 12:22:29;;;;;;;41.87;29.53;;;6.10;99.90;;;;;;5039143;28;20195;-74
2022/01/13 12:25:00;;;;;;;39.17;29.00;;;6.30;99.90;;;;;;5038888;28;20186;-73
2022/01/13 12:27:42;;;;;;;37.53;28.13;;;6.60;99.90;;;;;;5042496;28;20519;-73
2022/01/13 12:30:12;;;;;;;38.37;28.50;;;6.80;99.90;;;;;;5044656;28;20178;-73
2022/01/13 12:32:50;;;;;;;38.70;28.33;;;7.00;99.90;;;;;;5039240;28;20209;-73
2022/01/13 12:35:28;;;;;;;36.27;26.77;;;7.20;99.20;;;;;;5050836;28;20183;-73
2022/01/13 12:37:59;;;;;;;36.07;27.63;;;7.40;98.60;;;;;;5048449;28;20205;-74
2022/01/13 12:40:25;;;;;;;34.00;26.57;;;7.60;98.30;;;;;;5051328;28;20395;-73
2022/01/13 12:42:53;;;;;;;34.57;26.47;;;7.80;94.50;;;;;;5038632;28;20197;-73
2022/01/13 12:45:28;;;;;;;31.83;24.80;;;8.00;93.80;;;;;;5045617;28;20228;-73
2022/01/13 12:47:56;;;;;;;33.20;24.20;;;8.10;89.90;;;;;;5036557;28;20178;-74
2022/01/13 12:50:29;;;;;;;34.10;26.07;;;8.20;90.10;;;;;;5040487;28;20675;-74
2022/01/13 12:53:17;;;;;;;38.00;27.27;;;8.30;89.80;;;;;;5041062;28;20216;-74
2022/01/13 12:56:00;;;;;;;40.70;28.40;;;8.40;87.10;;;;;;5035843;28;20197;-74
2022/01/13 12:58:33;;;;;;;34.17;25.40;;;8.40;83.70;;;;;;5047993;28;20176;-75
2022/01/13 13:01:05;;;;;;;34.93;27.07;;;8.40;82.90;;;;;;5043178;28;20679;-75
2022/01/13 13:03:31;;;;;;;35.43;26.83;;;8.30;83.40;;;;;;5030329;28;20209;-75
2022/01/13 13:05:57;;;;;;;42.17;30.03;;;8.30;82.70;;;;;;5032102;28;20175;-75
2022/01/13 13:08:24;;;;;;;35.17;26.80;;;8.20;81.30;;;;;;5031812;28;20174;-75
2022/01/13 13:10:53;;;;;;;37.43;28.60;;;8.20;81.50;;;;;;5039669;28;20742;-75
2022/01/13 13:13:19;;;;;;;32.57;26.03;;;8.30;81.50;;;;;;5039592;28;20198;-75